sensor_id;sensor_type;location;lat;lon;timestamp;pressure;altitude;pressure_sealevel;temperature;humidity
71057;BME280;58380;48.312;9.246;2023-02-22T06:46:00;93320.97;;;-3.19;98.90
71057;BME280;58380;48.312;9.246;2023-02-22T06:48:26;93331.59;;;-3.08;99.26
71057;BME280;58380;48.312;9.246;2023-02-22T06:50:51;93346.63;;;-2.96;99.53
71057;BME280;58380;48.312;9.246;2023-02-22T06:53:17;93356.06;;;-2.89;99.19
71057;BME280;58380;48.312;9.246;2023-02-22T06:55:42;93336.31;;;-2.96;99.08
71057;BME280;58380;48.312;9.246;2023-02-22T06:58:07;93240.41;;;-3.51;98.75
71057;BME280;58380;48.312;9.246;2023-02-22T07:00:33;93357.56;;;-2.79;98.79
71057;BME280;58380;48.312;9.246;2023-02-22T07:02:59;93281.50;;;-3.13;98.71
71057;BME280;58380;48.312;9.246;2023-02-22T07:05:25;93288.56;;;-3.00;98.34
71057;BME280;58380;48.312;9.246;2023-02-22T07:07:53;93319.66;;;-2.72;98.25
71057;BME280;58380;48.312;9.246;2023-02-22T07:10:27;93354.84;;;-2.50;98.56
71057;BME280;58380;48.312;9.246;2023-02-22T07:12:54;93340.19;;;-2.43;98.64
71057;BME280;58380;48.312;9.246;2023-02-22T07:15:22;93317.69;;;-2.49;98.96
71057;BME280;58380;48.312;9.246;2023-02-22T07:17:49;93349.53;;;-2.20;99.33
71057;BME280;58380;48.312;9.246;2023-02-22T07:20:16;93310.25;;;-2.37;99.15
71057;BME280;58380;48.312;9.246;2023-02-22T07:22:44;93364.34;;;-2.07;99.10
71057;BME280;58380;48.312;9.246;2023-02-22T07:25:11;93348.72;;;-1.99;99.18
71057;BME280;58380;48.312;9.246;2023-02-22T07:27:42;93338.38;;;-1.99;99.15
71057;BME280;58380;48.312;9.246;2023-02-22T07:30:21;93342.41;;;-1.90;98.91
71057;BME280;58380;48.312;9.246;2023-02-22T07:32:54;93341.34;;;-1.67;98.94
71057;BME280;58380;48.312;9.246;2023-02-22T07:35:30;93351.22;;;-1.49;98.84
71057;BME280;58380;48.312;9.246;2023-02-22T07:37:57;93342.72;;;-1.37;98.27
71057;BME280;58380;48.312;9.246;2023-02-22T07:40:25;93297.22;;;-1.59;98.81
71057;BME280;58380;48.312;9.246;2023-02-22T07:45:25;93326.28;;;-1.16;99.07
71057;BME280;58380;48.312;9.246;2023-02-22T07:48:02;93346.13;;;-0.81;98.81
71057;BME280;58380;48.312;9.246;2023-02-22T07:50:30;93272.09;;;-1.17;99.32
71057;BME280;58380;48.312;9.246;2023-02-22T07:52:59;93355.41;;;-0.52;99.61
71057;BME280;58380;48.312;9.246;2023-02-22T07:55:28;93325.47;;;-0.55;99.56
71057;BME280;58380;48.312;9.246;2023-02-22T07:58:01;93352.63;;;-0.37;99.09
71057;BME280;58380;48.312;9.246;2023-02-22T08:00:37;93336.25;;;-0.38;98.82
71057;BME280;58380;48.312;9.246;2023-02-22T08:03:06;93339.06;;;-0.19;99.07
71057;BME280;58380;48.312;9.246;2023-02-22T08:05:35;93342.66;;;-0.14;99.46
71057;BME280;58380;48.312;9.246;2023-02-22T08:08:02;93301.16;;;-0.27;99.95
71057;BME280;58380;48.312;9.246;2023-02-22T08:10:28;93307.34;;;-0.08;99.66
71057;BME280;58380;48.312;9.246;2023-02-22T08:12:55;93342.03;;;0.24;98.92
71057;BME280;58380;48.312;9.246;2023-02-22T08:17:49;93281.41;;;0.05;98.63
71057;BME280;58380;48.312;9.246;2023-02-22T08:20:15;93340.41;;;0.56;98.65
71057;BME280;58380;48.312;9.246;2023-02-22T08:22:45;93316.06;;;0.51;98.79
71057;BME280;58380;48.312;9.246;2023-02-22T08:25:15;93314.06;;;0.53;98.83
71057;BME280;58380;48.312;9.246;2023-02-22T08:27:42;93274.94;;;0.41;98.94
71057;BME280;58380;48.312;9.246;2023-02-22T08:30:14;93313.59;;;0.69;99.08
71057;BME280;58380;48.312;9.246;2023-02-22T08:32:45;93330.31;;;0.86;99.68
71057;BME280;58380;48.312;9.246;2023-02-22T08:35:12;93262.59;;;0.75;99.33
71057;BME280;58380;48.312;9.246;2023-02-22T08:38:00;93326.97;;;1.24;98.23
71057;BME280;58380;48.312;9.246;2023-02-22T08:40:30;93314.97;;;1.23;98.32
71057;BME280;58380;48.312;9.246;2023-02-22T08:42:57;93313.66;;;1.46;98.40
71057;BME280;58380;48.312;9.246;2023-02-22T08:45:23;93265.31;;;1.32;99.02
71057;BME280;58380;48.312;9.246;2023-02-22T08:47:49;93272.22;;;1.51;99.50
71057;BME280;58380;48.312;9.246;2023-02-22T08:50:24;93294.09;;;1.93;100.00
71057;BME280;58380;48.312;9.246;2023-02-22T08:52:56;93320.59;;;2.34;100.00
71057;BME280;58380;48.312;9.246;2023-02-22T08:55:26;93282.22;;;2.48;100.00
71057;BME280;58380;48.312;9.246;2023-02-22T08:57:56;93269.03;;;2.61;99.77
71057;BME280;58380;48.312;9.246;2023-02-22T09:00:22;93307.81;;;3.06;99.29
71057;BME280;58380;48.312;9.246;2023-02-22T09:02:49;93293.81;;;3.19;98.84
71057;BME280;58380;48.312;9.246;2023-02-22T09:05:15;93302.34;;;3.56;99.39
71057;BME280;58380;48.312;9.246;2023-02-22T09:07:42;93310.13;;;3.86;97.76
71057;BME280;58380;48.312;9.246;2023-02-22T09:10:21;93273.72;;;3.92;95.73
71057;BME280;58380;48.312;9.246;2023-02-22T09:12:50;93299.19;;;4.20;95.98
71057;BME280;58380;48.312;9.246;2023-02-22T09:15:17;93273.88;;;4.32;95.05
71057;BME280;58380;48.312;9.246;2023-02-22T09:17:43;93272.06;;;4.44;94.38
71057;BME280;58380;48.312;9.246;2023-02-22T09:20:09;93242.16;;;4.40;93.89
71057;BME280;58380;48.312;9.246;2023-02-22T09:22:36;93266.22;;;4.66;93.52
71057;BME280;58380;48.312;9.246;2023-02-22T09:25:03;93233.94;;;4.60;94.02
71057;BME280;58380;48.312;9.246;2023-02-22T09:27:29;93298.75;;;5.10;93.38
71057;BME280;58380;48.312;9.246;2023-02-22T09:29:55;93276.66;;;5.18;92.46
71057;BME280;58380;48.312;9.246;2023-02-22T09:32:24;93288.88;;;5.41;92.12
71057;BME280;58380;48.312;9.246;2023-02-22T09:34:52;93281.75;;;5.53;91.42
71057;BME280;58380;48.312;9.246;2023-02-22T09:37:19;93281.63;;;5.60;89.47
71057;BME280;58380;48.312;9.246;2023-02-22T09:39:44;93279.41;;;5.69;87.84
71057;BME280;58380;48.312;9.246;2023-02-22T09:42:22;93272.94;;;5.88;87.02
71057;BME280;58380;48.312;9.246;2023-02-22T09:45:18;93278.50;;;6.09;85.47
71057;BME280;58380;48.312;9.246;2023-02-22T09:47:59;93233.25;;;5.96;83.88
71057;BME280;58380;48.312;9.246;2023-02-22T09:50:31;93266.84;;;6.33;82.70
71057;BME280;58380;48.312;9.246;2023-02-22T09:53:06;93222.06;;;6.18;82.48
71057;BME280;58380;48.312;9.246;2023-02-22T09:55:49;93263.16;;;6.51;82.78
71057;BME280;58380;48.312;9.246;2023-02-22T09:58:21;93247.41;;;6.51;82.09
71057;BME280;58380;48.312;9.246;2023-02-22T10:00:56;93225.97;;;6.54;82.06
71057;BME280;58380;48.312;9.246;2023-02-22T10:03:49;93256.63;;;6.93;80.58
71057;BME280;58380;48.312;9.246;2023-02-22T10:06:25;93265.50;;;7.13;79.79
71057;BME280;58380;48.312;9.246;2023-02-22T10:08:54;93263.38;;;7.32;78.87
71057;BME280;58380;48.312;9.246;2023-02-22T10:14:33;93236.44;;;7.42;76.43
71057;BME280;58380;48.312;9.246;2023-02-22T10:17:14;93251.41;;;7.69;77.16
71057;BME280;58380;48.312;9.246;2023-02-22T10:23:16;93264.53;;;8.33;73.00
71057;BME280;58380;48.312;9.246;2023-02-22T10:26:31;93255.78;;;8.55;73.32
71057;BME280;58380;48.312;9.246;2023-02-22T10:29:17;93230.00;;;8.57;70.49
71057;BME280;58380;48.312;9.246;2023-02-22T10:31:56;93253.38;;;9.01;68.18
71057;BME280;58380;48.312;9.246;2023-02-22T10:34:26;93243.72;;;9.17;67.70
71057;BME280;58380;48.312;9.246;2023-02-22T10:36:59;93231.59;;;9.26;68.97
71057;BME280;58380;48.312;9.246;2023-02-22T10:39:38;93244.88;;;9.57;65.46
71057;BME280;58380;48.312;9.246;2023-02-22T10:42:06;93229.09;;;9.72;64.54
71057;BME280;58380;48.312;9.246;2023-02-22T10:44:37;93224.88;;;9.81;64.04
71057;BME280;58380;48.312;9.246;2023-02-22T10:47:10;93214.34;;;9.76;63.50
71057;BME280;58380;48.312;9.246;2023-02-22T10:49:42;93248.63;;;9.91;64.01
71057;BME280;58380;48.312;9.246;2023-02-22T10:52:23;93197.97;;;9.64;64.53
71057;BME280;58380;48.312;9.246;2023-02-22T10:54:54;93243.34;;;10.02;65.06
71057;BME280;58380;48.312;9.246;2023-02-22T10:57:31;93220.41;;;10.07;62.99
71057;BME280;58380;48.312;9.246;2023-02-22T11:03:01;93213.78;;;10.25;63.35
71057;BME280;58380;48.312;9.246;2023-02-22T11:05:39;93194.56;;;10.30;62.96
71057;BME280;58380;48.312;9.246;2023-02-22T11:08:28;93211.66;;;10.58;63.08
71057;BME280;58380;48.312;9.246;2023-02-22T11:11:00;93171.88;;;10.29;63.51
71057;BME280;58380;48.312;9.246;2023-02-22T11:13:38;93210.34;;;10.71;62.15
71057;BME280;58380;48.312;9.246;2023-02-22T11:16:34;93210.28;;;10.86;61.88
71057;BME280;58380;48.312;9.246;2023-02-22T11:19:16;93209.16;;;10.97;61.79
71057;BME280;58380;48.312;9.246;2023-02-22T11:21:50;93204.38;;;11.10;61.03
71057;BME280;58380;48.312;9.246;2023-02-22T11:24:20;93192.72;;;11.21;59.56
71057;BME280;58380;48.312;9.246;2023-02-22T11:26:52;93200.03;;;11.34;59.54
71057;BME280;58380;48.312;9.246;2023-02-22T11:29:34;93198.66;;;11.42;60.69
71057;BME280;58380;48.312;9.246;2023-02-22T11:32:17;93186.72;;;11.50;58.99
71057;BME280;58380;48.312;9.246;2023-02-22T11:34:46;93162.13;;;11.54;58.02
71057;BME280;58380;48.312;9.246;2023-02-22T11:37:31;93178.72;;;11.60;58.94
71057;BME280;58380;48.312;9.246;2023-02-22T11:40:12;93173.78;;;11.48;58.22
71057;BME280;58380;48.312;9.246;2023-02-22T11:42:45;93167.38;;;11.59;54.84
71057;BME280;58380;48.312;9.246;2023-02-22T11:45:19;93175.72;;;11.77;53.72
71057;BME280;58380;48.312;9.246;2023-02-22T11:47:57;93167.00;;;11.76;55.34
71057;BME280;58380;48.312;9.246;2023-02-22T11:50:28;93155.34;;;11.77;52.75
71057;BME280;58380;48.312;9.246;2023-02-22T12:01:43;93149.31;;;12.35;57.19
71057;BME280;58380;48.312;9.246;2023-02-22T12:07:50;93106.59;;;11.94;52.85
71057;BME280;58380;48.312;9.246;2023-02-22T12:14:23;93148.19;;;12.65;48.62
71057;BME280;58380;48.312;9.246;2023-02-22T12:17:08;93126.59;;;12.58;49.42
71057;BME280;58380;48.312;9.246;2023-02-22T12:19:42;93136.25;;;12.68;51.38
71057;BME280;58380;48.312;9.246;2023-02-22T12:22:26;93133.66;;;12.63;49.84
71057;BME280;58380;48.312;9.246;2023-02-22T12:25:17;93128.81;;;12.70;49.12
71057;BME280;58380;48.312;9.246;2023-02-22T12:27:52;93135.66;;;12.76;49.49
71057;BME280;58380;48.312;9.246;2023-02-22T12:30:23;93140.22;;;12.70;51.97
71057;BME280;58380;48.312;9.246;2023-02-22T12:32:56;93125.16;;;12.42;53.11
71057;BME280;58380;48.312;9.246;2023-02-22T12:35:27;93131.31;;;12.37;52.67
71057;BME280;58380;48.312;9.246;2023-02-22T12:38:03;93126.09;;;12.27;52.01
71057;BME280;58380;48.312;9.246;2023-02-22T12:43:32;93129.44;;;12.38;54.92
71057;BME280;58380;48.312;9.246;2023-02-22T12:46:27;93138.28;;;12.52;51.89
71057;BME280;58380;48.312;9.246;2023-02-22T12:54:57;93110.81;;;12.24;55.35
71057;BME280;58380;48.312;9.246;2023-02-22T12:57:36;93107.31;;;12.28;52.03
71057;BME280;58380;48.312;9.246;2023-02-22T13:00:29;93135.00;;;12.60;52.33
71057;BME280;58380;48.312;9.246;2023-02-22T13:03:18;93139.53;;;12.60;51.64
71057;BME280;58380;48.312;9.246;2023-02-22T13:05:59;93133.13;;;12.66;51.54
71057;BME280;58380;48.312;9.246;2023-02-22T13:09:06;93139.72;;;12.68;53.58
71057;BME280;58380;48.312;9.246;2023-02-22T13:11:56;93109.00;;;12.43;51.68
71057;BME280;58380;48.312;9.246;2023-02-22T13:14:56;93132.63;;;12.64;52.03
71057;BME280;58380;48.312;9.246;2023-02-22T13:17:55;93137.06;;;12.68;52.36
71057;BME280;58380;48.312;9.246;2023-02-22T13:20:47;93129.72;;;12.60;53.41
71057;BME280;58380;48.312;9.246;2023-02-22T13:26:45;93127.44;;;12.54;49.18
71057;BME280;58380;48.312;9.246;2023-02-22T13:29:22;93133.19;;;12.61;49.02
71057;BME280;58380;48.312;9.246;2023-02-22T13:38:24;93122.19;;;12.48;48.04
71057;BME280;58380;48.312;9.246;2023-02-22T13:50:57;93132.84;;;12.43;47.15
71057;BME280;58380;48.312;9.246;2023-02-22T13:53:55;93124.31;;;12.46;46.57
71057;BME280;58380;48.312;9.246;2023-02-22T13:56:25;93121.44;;;12.43;45.89
71057;BME280;58380;48.312;9.246;2023-02-22T13:58:54;93102.81;;;12.53;45.94
71057;BME280;58380;48.312;9.246;2023-02-22T14:09:46;93140.53;;;12.88;45.23
71057;BME280;58380;48.312;9.246;2023-02-22T14:17:35;93130.22;;;12.62;45.79
71057;BME280;58380;48.312;9.246;2023-02-22T14:20:25;93128.59;;;12.66;46.19
71057;BME280;58380;48.312;9.246;2023-02-22T14:25:47;93116.91;;;12.48;46.43
71057;BME280;58380;48.312;9.246;2023-02-22T14:28:37;93126.34;;;12.55;47.25
71057;BME280;58380;48.312;9.246;2023-02-22T14:31:12;93122.13;;;12.54;48.25
71057;BME280;58380;48.312;9.246;2023-02-22T14:36:39;93070.47;;;12.32;47.40
71057;BME280;58380;48.312;9.246;2023-02-22T14:39:34;93121.56;;;12.57;47.27
71057;BME280;58380;48.312;9.246;2023-02-22T14:42:15;93136.50;;;12.71;47.91
71057;BME280;58380;48.312;9.246;2023-02-22T14:47:43;93134.44;;;12.87;47.99
71057;BME280;58380;48.312;9.246;2023-02-22T14:50:18;93136.03;;;12.88;49.12
71057;BME280;58380;48.312;9.246;2023-02-22T14:52:56;93130.38;;;12.95;46.34
71057;BME280;58380;48.312;9.246;2023-02-22T14:55:29;93128.16;;;12.83;46.89
71057;BME280;58380;48.312;9.246;2023-02-22T15:00:43;93136.72;;;12.51;46.78
71057;BME280;58380;48.312;9.246;2023-02-22T15:05:49;93049.88;;;12.05;47.39
71057;BME280;58380;48.312;9.246;2023-02-22T15:08:17;93119.31;;;12.45;46.93
71057;BME280;58380;48.312;9.246;2023-02-22T15:10:51;93136.47;;;12.47;48.08
71057;BME280;58380;48.312;9.246;2023-02-22T15:13:25;93126.13;;;12.51;49.07
71057;BME280;58380;48.312;9.246;2023-02-22T15:16:01;93126.47;;;12.44;48.36
71057;BME280;58380;48.312;9.246;2023-02-22T15:18:45;93133.88;;;12.42;47.71
71057;BME280;58380;48.312;9.246;2023-02-22T15:21:23;93072.69;;;12.01;47.13
71057;BME280;58380;48.312;9.246;2023-02-22T15:23:59;93112.00;;;12.07;47.09
71057;BME280;58380;48.312;9.246;2023-02-22T15:26:34;93125.53;;;12.30;47.78
71057;BME280;58380;48.312;9.246;2023-02-22T15:29:01;93117.19;;;12.18;47.72
71057;BME280;58380;48.312;9.246;2023-02-22T15:31:35;93124.03;;;12.24;48.28
71057;BME280;58380;48.312;9.246;2023-02-22T15:36:45;93098.97;;;12.16;48.07
71057;BME280;58380;48.312;9.246;2023-02-22T15:39:25;93102.22;;;12.08;49.12
71057;BME280;58380;48.312;9.246;2023-02-22T15:42:11;93089.13;;;11.93;49.30
71057;BME280;58380;48.312;9.246;2023-02-22T15:44:47;93121.28;;;12.05;49.38
71057;BME280;58380;48.312;9.246;2023-02-22T15:51:10;93132.53;;;11.92;50.41
71057;BME280;58380;48.312;9.246;2023-02-22T15:53:47;93139.16;;;11.84;50.83
71057;BME280;58380;48.312;9.246;2023-02-22T15:56:17;93126.91;;;11.64;51.01
71057;BME280;58380;48.312;9.246;2023-02-22T15:59:12;93123.78;;;11.57;52.01
71057;BME280;58380;48.312;9.246;2023-02-22T16:01:44;93143.28;;;11.66;52.02
71057;BME280;58380;48.312;9.246;2023-02-22T16:04:26;93140.47;;;11.52;53.48
71057;BME280;58380;48.312;9.246;2023-02-22T16:07:03;93139.75;;;11.41;54.49
71057;BME280;58380;48.312;9.246;2023-02-22T16:09:45;93122.72;;;11.18;54.89
71057;BME280;58380;48.312;9.246;2023-02-22T16:14:45;93151.81;;;11.13;55.56
71057;BME280;58380;48.312;9.246;2023-02-22T16:17:33;93148.66;;;11.06;55.54
71057;BME280;58380;48.312;9.246;2023-02-22T16:20:27;93153.44;;;10.99;55.90
71057;BME280;58380;48.312;9.246;2023-02-22T16:22:47;93152.91;;;11.02;56.09
71057;BME280;58380;48.312;9.246;2023-02-22T16:27:47;93133.50;;;10.72;56.63
71057;BME280;58380;48.312;9.246;2023-02-22T16:30:30;93155.63;;;10.82;56.84
71057;BME280;58380;48.312;9.246;2023-02-22T16:32:58;93149.63;;;10.71;56.85
71057;BME280;58380;48.312;9.246;2023-02-22T16:35:25;93145.19;;;10.56;56.97
71057;BME280;58380;48.312;9.246;2023-02-22T16:38:01;93127.81;;;10.34;57.57
71057;BME280;58380;48.312;9.246;2023-02-22T16:40:32;93166.84;;;10.43;58.27
71057;BME280;58380;48.312;9.246;2023-02-22T16:43:01;93144.69;;;10.13;59.09
71057;BME280;58380;48.312;9.246;2023-02-22T16:45:32;93154.22;;;10.14;59.64
71057;BME280;58380;48.312;9.246;2023-02-22T16:47:58;93160.81;;;10.06;60.35
71057;BME280;58380;48.312;9.246;2023-02-22T16:50:24;93153.44;;;9.88;60.83
71057;BME280;58380;48.312;9.246;2023-02-22T16:52:52;93170.56;;;9.80;62.07
71057;BME280;58380;48.312;9.246;2023-02-22T16:55:19;93153.44;;;9.62;62.69
71057;BME280;58380;48.312;9.246;2023-02-22T16:57:46;93178.47;;;9.65;63.30
71057;BME280;58380;48.312;9.246;2023-02-22T17:00:17;93181.09;;;9.49;64.68
71057;BME280;58380;48.312;9.246;2023-02-22T17:03:00;93163.41;;;9.24;69.71
71057;BME280;58380;48.312;9.246;2023-02-22T17:05:31;93188.97;;;9.24;72.34
71057;BME280;58380;48.312;9.246;2023-02-22T17:08:02;93184.72;;;9.23;73.04
71057;BME280;58380;48.312;9.246;2023-02-22T17:10:28;93195.03;;;9.29;73.35
71057;BME280;58380;48.312;9.246;2023-02-22T17:12:54;93170.72;;;9.07;73.79
71057;BME280;58380;48.312;9.246;2023-02-22T17:15:26;93197.31;;;9.11;74.89
71057;BME280;58380;48.312;9.246;2023-02-22T17:17:57;93202.59;;;9.11;74.96
71057;BME280;58380;48.312;9.246;2023-02-22T17:20:23;93209.94;;;9.03;74.90
71057;BME280;58380;48.312;9.246;2023-02-22T17:23:06;93213.63;;;8.97;74.19
71057;BME280;58380;48.312;9.246;2023-02-22T17:25:37;93211.97;;;8.86;76.13
71057;BME280;58380;48.312;9.246;2023-02-22T17:28:05;93209.28;;;8.76;76.34
71057;BME280;58380;48.312;9.246;2023-02-22T17:30:32;93196.06;;;8.55;76.82
71057;BME280;58380;48.312;9.246;2023-02-22T17:33:00;93220.56;;;8.66;76.25
71057;BME280;58380;48.312;9.246;2023-02-22T17:35:32;93219.75;;;8.60;76.47
71057;BME280;58380;48.312;9.246;2023-02-22T17:38:00;93231.56;;;8.58;77.57
71057;BME280;58380;48.312;9.246;2023-02-22T17:40:33;93183.47;;;8.20;77.31
71057;BME280;58380;48.312;9.246;2023-02-22T17:43:00;93236.50;;;8.44;77.67
71057;BME280;58380;48.312;9.246;2023-02-22T17:45:27;93233.81;;;8.39;77.38
71057;BME280;58380;48.312;9.246;2023-02-22T17:47:54;93230.84;;;8.30;77.71
71057;BME280;58380;48.312;9.246;2023-02-22T17:50:21;93227.59;;;8.18;78.18
71057;BME280;58380;48.312;9.246;2023-02-22T17:52:48;93215.91;;;7.98;78.64
71057;BME280;58380;48.312;9.246;2023-02-22T17:55:20;93244.59;;;8.05;79.02
71057;BME280;58380;48.312;9.246;2023-02-22T17:57:49;93245.13;;;8.02;78.94
71057;BME280;58380;48.312;9.246;2023-02-22T18:00:21;93235.34;;;7.97;79.33
71057;BME280;58380;48.312;9.246;2023-02-22T18:03:01;93238.22;;;7.96;79.35
71057;BME280;58380;48.312;9.246;2023-02-22T18:05:29;93236.09;;;7.93;79.08
71057;BME280;58380;48.312;9.246;2023-02-22T18:07:57;93233.91;;;7.80;80.13
71057;BME280;58380;48.312;9.246;2023-02-22T18:10:22;93232.84;;;7.81;80.46
71057;BME280;58380;48.312;9.246;2023-02-22T18:12:50;93232.56;;;7.77;80.95
71057;BME280;58380;48.312;9.246;2023-02-22T18:15:18;93246.28;;;7.84;81.00
71057;BME280;58380;48.312;9.246;2023-02-22T18:17:48;93251.81;;;7.88;80.77
71057;BME280;58380;48.312;9.246;2023-02-22T18:20:14;93252.84;;;7.82;80.97
71057;BME280;58380;48.312;9.246;2023-02-22T18:23:09;93249.06;;;7.72;80.99
71057;BME280;58380;48.312;9.246;2023-02-22T18:25:37;93236.81;;;7.56;81.60
71057;BME280;58380;48.312;9.246;2023-02-22T18:28:05;93256.81;;;7.57;81.80
71057;BME280;58380;48.312;9.246;2023-02-22T18:30:36;93260.22;;;7.57;82.27
71057;BME280;58380;48.312;9.246;2023-02-22T18:33:02;93252.28;;;7.52;82.93
71057;BME280;58380;48.312;9.246;2023-02-22T18:35:28;93250.72;;;7.51;83.02
71057;BME280;58380;48.312;9.246;2023-02-22T18:37:54;93246.19;;;7.47;83.56
71057;BME280;58380;48.312;9.246;2023-02-22T18:40:19;93225.34;;;7.35;85.00
71057;BME280;58380;48.312;9.246;2023-02-22T18:42:45;93255.75;;;7.58;83.75
71057;BME280;58380;48.312;9.246;2023-02-22T18:45:11;93254.41;;;7.55;84.61
71057;BME280;58380;48.312;9.246;2023-02-22T18:47:39;93239.41;;;7.51;84.92
71057;BME280;58380;48.312;9.246;2023-02-22T18:50:09;93245.50;;;7.56;84.09
71057;BME280;58380;48.312;9.246;2023-02-22T18:52:35;93229.91;;;7.45;83.61
71057;BME280;58380;48.312;9.246;2023-02-22T18:55:10;93241.13;;;7.40;84.35
71057;BME280;58380;48.312;9.246;2023-02-22T18:57:43;93226.34;;;7.29;84.70
71057;BME280;58380;48.312;9.246;2023-02-22T19:00:12;93255.91;;;7.46;84.96
71057;BME280;58380;48.312;9.246;2023-02-22T19:02:39;93207.34;;;7.22;84.57
71057;BME280;58380;48.312;9.246;2023-02-22T19:05:08;93249.28;;;7.44;85.85
71057;BME280;58380;48.312;9.246;2023-02-22T19:07:34;93256.25;;;7.55;85.68
71057;BME280;58380;48.312;9.246;2023-02-22T19:10:01;93214.19;;;7.23;85.95
71057;BME280;58380;48.312;9.246;2023-02-22T19:12:27;93231.63;;;7.34;85.84
71057;BME280;58380;48.312;9.246;2023-02-22T19:14:55;93249.91;;;7.51;85.57
71057;BME280;58380;48.312;9.246;2023-02-22T19:17:22;93222.38;;;7.26;85.14
71057;BME280;58380;48.312;9.246;2023-02-22T19:19:48;93246.66;;;7.44;85.29
71057;BME280;58380;48.312;9.246;2023-02-22T19:22:14;93252.97;;;7.43;85.48
71057;BME280;58380;48.312;9.246;2023-02-22T19:24:41;93243.53;;;7.42;86.24
71057;BME280;58380;48.312;9.246;2023-02-22T19:27:07;93234.84;;;7.41;86.24
71057;BME280;58380;48.312;9.246;2023-02-22T19:29:32;93242.97;;;7.40;87.08
71057;BME280;58380;48.312;9.246;2023-02-22T19:32:02;93212.28;;;7.18;86.24
71057;BME280;58380;48.312;9.246;2023-02-22T19:34:28;93245.84;;;7.38;86.28
71057;BME280;58380;48.312;9.246;2023-02-22T19:36:55;93220.47;;;7.22;87.31
71057;BME280;58380;48.312;9.246;2023-02-22T19:39:26;93243.94;;;7.33;87.21
71057;BME280;58380;48.312;9.246;2023-02-22T19:41:56;93231.75;;;7.22;87.20
71057;BME280;58380;48.312;9.246;2023-02-22T19:44:23;93244.72;;;7.29;86.72
71057;BME280;58380;48.312;9.246;2023-02-22T19:46:50;93246.47;;;7.23;86.62
71057;BME280;58380;48.312;9.246;2023-02-22T19:49:15;93152.34;;;6.61;86.75
71057;BME280;58380;48.312;9.246;2023-02-22T19:51:41;93243.50;;;7.15;87.45
71057;BME280;58380;48.312;9.246;2023-02-22T19:54:11;93254.22;;;7.13;87.79
71057;BME280;58380;48.312;9.246;2023-02-22T19:56:43;93231.78;;;7.00;87.92
71057;BME280;58380;48.312;9.246;2023-02-22T19:59:09;93253.22;;;7.14;87.50
71057;BME280;58380;48.312;9.246;2023-02-22T20:01:41;93257.34;;;7.10;87.34
71057;BME280;58380;48.312;9.246;2023-02-22T20:04:09;93232.50;;;6.96;87.68
71057;BME280;58380;48.312;9.246;2023-02-22T20:06:39;93253.00;;;6.99;87.81
71057;BME280;58380;48.312;9.246;2023-02-22T20:09:08;93247.97;;;6.92;87.75
71057;BME280;58380;48.312;9.246;2023-02-22T20:11:36;93239.66;;;6.78;87.82
71057;BME280;58380;48.312;9.246;2023-02-22T20:14:04;93246.28;;;6.86;88.19
71057;BME280;58380;48.312;9.246;2023-02-22T20:16:30;93253.88;;;6.82;88.19
71057;BME280;58380;48.312;9.246;2023-02-22T20:18:56;93257.00;;;6.79;89.37
71057;BME280;58380;48.312;9.246;2023-02-22T20:21:28;93236.09;;;6.67;88.64
71057;BME280;58380;48.312;9.246;2023-02-22T20:23:56;93246.84;;;6.66;88.23
71057;BME280;58380;48.312;9.246;2023-02-22T20:26:28;93242.06;;;6.63;88.75
71057;BME280;58380;48.312;9.246;2023-02-22T20:28:55;93260.00;;;6.71;89.00
71057;BME280;58380;48.312;9.246;2023-02-22T20:31:21;93245.97;;;6.60;88.97
71057;BME280;58380;48.312;9.246;2023-02-22T20:33:50;93258.94;;;6.67;88.56
71057;BME280;58380;48.312;9.246;2023-02-22T20:36:19;93236.94;;;6.51;88.46
71057;BME280;58380;48.312;9.246;2023-02-22T20:38:50;93254.25;;;6.52;88.77
71057;BME280;58380;48.312;9.246;2023-02-22T20:41:31;93254.75;;;6.49;89.17
71057;BME280;58380;48.312;9.246;2023-02-22T20:44:00;93253.63;;;6.45;89.72
71057;BME280;58380;48.312;9.246;2023-02-22T20:46:29;93246.50;;;6.40;89.53
71057;BME280;58380;48.312;9.246;2023-02-22T20:48:57;93246.72;;;6.39;90.17
71057;BME280;58380;48.312;9.246;2023-02-22T20:51:25;93240.13;;;6.36;90.17
71057;BME280;58380;48.312;9.246;2023-02-22T20:53:52;93236.91;;;6.29;90.42
71057;BME280;58380;48.312;9.246;2023-02-22T20:56:21;93259.09;;;6.43;90.49
71057;BME280;58380;48.312;9.246;2023-02-22T20:58:49;93234.19;;;6.24;89.86
71057;BME280;58380;48.312;9.246;2023-02-22T21:01:16;93249.59;;;6.37;90.00
71057;BME280;58380;48.312;9.246;2023-02-22T21:03:48;93245.50;;;6.24;89.88
71057;BME280;58380;48.312;9.246;2023-02-22T21:06:15;93229.06;;;6.12;89.68
71057;BME280;58380;48.312;9.246;2023-02-22T21:08:44;93247.97;;;6.14;90.32
71057;BME280;58380;48.312;9.246;2023-02-22T21:11:15;93229.38;;;5.99;90.46
71057;BME280;58380;48.312;9.246;2023-02-22T21:13:42;93249.75;;;6.14;90.34
71057;BME280;58380;48.312;9.246;2023-02-22T21:16:16;93252.38;;;6.14;90.51
71057;BME280;58380;48.312;9.246;2023-02-22T21:18:51;93214.91;;;5.96;90.63
71057;BME280;58380;48.312;9.246;2023-02-22T21:21:26;93240.66;;;5.99;90.45
71057;BME280;58380;48.312;9.246;2023-02-22T21:23:54;93253.44;;;6.13;91.10
71057;BME280;58380;48.312;9.246;2023-02-22T21:26:24;93237.00;;;6.00;91.32
71057;BME280;58380;48.312;9.246;2023-02-22T21:28:53;93218.97;;;5.87;90.99
71057;BME280;58380;48.312;9.246;2023-02-22T21:31:20;93242.47;;;5.99;90.93
71057;BME280;58380;48.312;9.246;2023-02-22T21:33:50;93220.06;;;5.74;91.04
71057;BME280;58380;48.312;9.246;2023-02-22T21:36:18;93211.41;;;5.57;90.94
71057;BME280;58380;48.312;9.246;2023-02-22T21:38:46;93254.19;;;5.79;91.05
71057;BME280;58380;48.312;9.246;2023-02-22T21:41:17;93248.69;;;5.64;91.84
71057;BME280;58380;48.312;9.246;2023-02-22T21:43:46;93251.63;;;5.68;92.62
71057;BME280;58380;48.312;9.246;2023-02-22T21:46:14;93267.25;;;5.62;92.98
71057;BME280;58380;48.312;9.246;2023-02-22T21:48:41;93249.94;;;5.61;92.93
71057;BME280;58380;48.312;9.246;2023-02-22T21:51:17;93249.72;;;5.63;92.46
71057;BME280;58380;48.312;9.246;2023-02-22T21:53:53;93212.94;;;5.24;92.79
71057;BME280;58380;48.312;9.246;2023-02-22T21:56:22;93251.03;;;5.49;92.66
71057;BME280;58380;48.312;9.246;2023-02-22T21:58:59;93252.88;;;5.48;92.97